sensor_id;sensor_type;location;lat;lon;timestamp;pressure;altitude;pressure_sealevel;temperature;humidity
70589;BME280;58152;49.202;18.744;2023-09-08T00:01:45;98145.41;;;18.85;55.55
70589;BME280;58152;49.202;18.744;2023-09-08T00:04:13;98151.16;;;18.78;55.65
70589;BME280;58152;49.202;18.744;2023-09-08T00:06:40;98152.31;;;18.74;55.77
70589;BME280;58152;49.202;18.744;2023-09-08T00:09:07;98166.22;;;18.78;55.77
70589;BME280;58152;49.202;18.744;2023-09-08T00:11:32;98155.88;;;18.73;55.96
70589;BME280;58152;49.202;18.744;2023-09-08T00:13:58;98151.81;;;18.68;56.04
70589;BME280;58152;49.202;18.744;2023-09-08T00:16:25;98155.31;;;18.68;56.55
70589;BME280;58152;49.202;18.744;2023-09-08T00:18:53;98161.69;;;18.66;56.78
70589;BME280;58152;49.202;18.744;2023-09-08T00:21:19;98159.03;;;18.66;56.79
70589;BME280;58152;49.202;18.744;2023-09-08T00:23:44;98154.75;;;18.63;56.64
70589;BME280;58152;49.202;18.744;2023-09-08T00:26:10;98148.91;;;18.58;56.64
70589;BME280;58152;49.202;18.744;2023-09-08T00:28:35;98145.78;;;18.51;56.93
70589;BME280;58152;49.202;18.744;2023-09-08T00:31:00;98155.28;;;18.56;56.81
70589;BME280;58152;49.202;18.744;2023-09-08T00:33:27;98157.16;;;18.53;56.66
70589;BME280;58152;49.202;18.744;2023-09-08T00:35:52;98145.31;;;18.45;56.43
70589;BME280;58152;49.202;18.744;2023-09-08T00:38:19;98157.47;;;18.49;56.66
70589;BME280;58152;49.202;18.744;2023-09-08T00:40:44;98157.03;;;18.42;56.89
70589;BME280;58152;49.202;18.744;2023-09-08T00:43:10;98152.56;;;18.43;56.83
70589;BME280;58152;49.202;18.744;2023-09-08T00:45:38;98154.44;;;18.41;57.03
70589;BME280;58152;49.202;18.744;2023-09-08T00:48:05;98146.78;;;18.36;57.36
70589;BME280;58152;49.202;18.744;2023-09-08T00:50:31;98147.84;;;18.34;56.81
70589;BME280;58152;49.202;18.744;2023-09-08T00:52:56;98152.66;;;18.27;56.98
70589;BME280;58152;49.202;18.744;2023-09-08T00:55:23;98143.41;;;18.20;57.12
70589;BME280;58152;49.202;18.744;2023-09-08T00:57:48;98153.06;;;18.21;56.98
70589;BME280;58152;49.202;18.744;2023-09-08T01:00:14;98148.34;;;18.12;57.09
70589;BME280;58152;49.202;18.744;2023-09-08T01:02:40;98155.53;;;18.10;57.35
70589;BME280;58152;49.202;18.744;2023-09-08T01:05:06;98142.56;;;18.05;57.52
70589;BME280;58152;49.202;18.744;2023-09-08T01:07:31;98149.03;;;18.01;57.03
70589;BME280;58152;49.202;18.744;2023-09-08T01:09:58;98140.59;;;17.94;56.95
70589;BME280;58152;49.202;18.744;2023-09-08T01:12:29;98147.69;;;17.94;57.28
70589;BME280;58152;49.202;18.744;2023-09-08T01:14:54;98137.66;;;17.85;57.32
70589;BME280;58152;49.202;18.744;2023-09-08T01:17:20;98144.66;;;17.86;57.29
70589;BME280;58152;49.202;18.744;2023-09-08T01:19:47;98135.28;;;17.80;57.28
70589;BME280;58152;49.202;18.744;2023-09-08T01:22:23;98140.69;;;17.78;57.45
70589;BME280;58152;49.202;18.744;2023-09-08T01:25:20;98146.00;;;17.78;58.62
70589;BME280;58152;49.202;18.744;2023-09-08T01:27:55;98143.41;;;17.63;58.11
70589;BME280;58152;49.202;18.744;2023-09-08T01:30:23;98140.75;;;17.63;57.80
70589;BME280;58152;49.202;18.744;2023-09-08T01:32:50;98141.59;;;17.63;57.63
70589;BME280;58152;49.202;18.744;2023-09-08T01:35:16;98145.19;;;17.62;57.69
70589;BME280;58152;49.202;18.744;2023-09-08T01:37:44;98142.81;;;17.58;57.97
70589;BME280;58152;49.202;18.744;2023-09-08T01:40:10;98149.94;;;17.57;58.06
70589;BME280;58152;49.202;18.744;2023-09-08T01:42:37;98156.00;;;17.59;57.90
70589;BME280;58152;49.202;18.744;2023-09-08T01:45:03;98144.06;;;17.52;57.93
70589;BME280;58152;49.202;18.744;2023-09-08T01:47:29;98150.22;;;17.52;58.33
70589;BME280;58152;49.202;18.744;2023-09-08T01:49:55;98148.28;;;17.40;58.45
70589;BME280;58152;49.202;18.744;2023-09-08T01:52:20;98141.56;;;17.35;58.77
70589;BME280;58152;49.202;18.744;2023-09-08T01:54:45;98145.19;;;17.34;58.77
70589;BME280;58152;49.202;18.744;2023-09-08T01:57:11;98148.94;;;17.30;59.01
70589;BME280;58152;49.202;18.744;2023-09-08T01:59:36;98146.47;;;17.26;58.98
70589;BME280;58152;49.202;18.744;2023-09-08T02:02:02;98141.28;;;17.25;58.86
70589;BME280;58152;49.202;18.744;2023-09-08T02:04:28;98137.88;;;17.23;59.01
70589;BME280;58152;49.202;18.744;2023-09-08T02:06:54;98137.19;;;17.19;58.65
70589;BME280;58152;49.202;18.744;2023-09-08T02:09:33;98136.25;;;17.20;58.99
70589;BME280;58152;49.202;18.744;2023-09-08T02:11:59;98134.53;;;17.19;58.82
70589;BME280;58152;49.202;18.744;2023-09-08T02:14:25;98134.03;;;17.13;58.91
70589;BME280;58152;49.202;18.744;2023-09-08T02:16:50;98133.28;;;17.11;58.94
70589;BME280;58152;49.202;18.744;2023-09-08T02:19:16;98133.19;;;17.12;58.84
70589;BME280;58152;49.202;18.744;2023-09-08T02:21:41;98119.63;;;17.02;58.90
70589;BME280;58152;49.202;18.744;2023-09-08T02:24:07;98128.25;;;17.06;59.29
70589;BME280;58152;49.202;18.744;2023-09-08T02:26:32;98131.09;;;17.03;59.39
70589;BME280;58152;49.202;18.744;2023-09-08T02:28:59;98128.53;;;17.01;59.34
70589;BME280;58152;49.202;18.744;2023-09-08T02:31:26;98127.84;;;16.98;59.30
70589;BME280;58152;49.202;18.744;2023-09-08T02:33:52;98113.28;;;16.91;58.95
70589;BME280;58152;49.202;18.744;2023-09-08T02:36:17;98114.56;;;16.84;58.84
70589;BME280;58152;49.202;18.744;2023-09-08T02:38:43;98115.69;;;16.80;58.97
70589;BME280;58152;49.202;18.744;2023-09-08T02:41:08;98122.94;;;16.76;59.09
70589;BME280;58152;49.202;18.744;2023-09-08T02:43:34;98121.50;;;16.70;58.85
70589;BME280;58152;49.202;18.744;2023-09-08T02:45:59;98115.44;;;16.68;58.82
70589;BME280;58152;49.202;18.744;2023-09-08T02:48:25;98114.75;;;16.65;58.69
70589;BME280;58152;49.202;18.744;2023-09-08T02:50:50;98116.72;;;16.61;58.89
70589;BME280;58152;49.202;18.744;2023-09-08T02:53:16;98115.97;;;16.59;59.03
70589;BME280;58152;49.202;18.744;2023-09-08T02:55:41;98115.28;;;16.56;58.88
70589;BME280;58152;49.202;18.744;2023-09-08T02:58:06;98112.72;;;16.54;59.05
70589;BME280;58152;49.202;18.744;2023-09-08T03:00:32;98116.50;;;16.50;58.79
70589;BME280;58152;49.202;18.744;2023-09-08T03:02:57;98108.88;;;16.44;58.48
70589;BME280;58152;49.202;18.744;2023-09-08T03:05:22;98114.28;;;16.42;59.09
70589;BME280;58152;49.202;18.744;2023-09-08T03:07:48;98114.28;;;16.42;59.19
70589;BME280;58152;49.202;18.744;2023-09-08T03:10:14;98116.06;;;16.42;59.33
70589;BME280;58152;49.202;18.744;2023-09-08T03:12:39;98105.91;;;16.34;59.50
70589;BME280;58152;49.202;18.744;2023-09-08T03:15:05;98102.41;;;16.34;59.30
70589;BME280;58152;49.202;18.744;2023-09-08T03:17:31;98108.66;;;16.33;59.19
70589;BME280;58152;49.202;18.744;2023-09-08T03:19:56;98109.75;;;16.29;59.09
70589;BME280;58152;49.202;18.744;2023-09-08T03:22:22;98121.09;;;16.31;59.30
70589;BME280;58152;49.202;18.744;2023-09-08T03:24:48;98106.69;;;16.20;59.81
70589;BME280;58152;49.202;18.744;2023-09-08T03:27:13;98111.13;;;16.20;59.60
70589;BME280;58152;49.202;18.744;2023-09-08T03:29:39;98118.56;;;16.13;60.12
70589;BME280;58152;49.202;18.744;2023-09-08T03:32:04;98117.09;;;16.08;60.62
70589;BME280;58152;49.202;18.744;2023-09-08T03:34:30;98126.81;;;16.07;60.41
70589;BME280;58152;49.202;18.744;2023-09-08T03:36:56;98119.84;;;16.06;60.93
70589;BME280;58152;49.202;18.744;2023-09-08T03:39:21;98123.78;;;15.99;61.22
70589;BME280;58152;49.202;18.744;2023-09-08T03:41:46;98130.22;;;15.93;61.06
70589;BME280;58152;49.202;18.744;2023-09-08T03:44:12;98137.31;;;15.93;61.28
70589;BME280;58152;49.202;18.744;2023-09-08T03:46:37;98127.19;;;15.85;61.19
70589;BME280;58152;49.202;18.744;2023-09-08T03:49:03;98132.72;;;15.81;61.31
70589;BME280;58152;49.202;18.744;2023-09-08T03:51:28;98130.06;;;15.81;61.11
70589;BME280;58152;49.202;18.744;2023-09-08T03:53:54;98140.72;;;15.79;61.51
70589;BME280;58152;49.202;18.744;2023-09-08T03:56:19;98131.16;;;15.77;61.43
70589;BME280;58152;49.202;18.744;2023-09-08T03:58:48;98127.13;;;15.69;61.69
70589;BME280;58152;49.202;18.744;2023-09-08T04:01:14;98131.72;;;15.66;61.74
70589;BME280;58152;49.202;18.744;2023-09-08T04:03:39;98118.13;;;15.56;61.93
70589;BME280;58152;49.202;18.744;2023-09-08T04:06:05;98132.88;;;15.60;61.63
70589;BME280;58152;49.202;18.744;2023-09-08T04:08:30;98124.84;;;15.62;61.21
70589;BME280;58152;49.202;18.744;2023-09-08T04:10:55;98126.59;;;15.63;61.56
70589;BME280;58152;49.202;18.744;2023-09-08T04:13:21;98127.59;;;15.60;61.43
70589;BME280;58152;49.202;18.744;2023-09-08T04:15:46;98119.75;;;15.59;61.39
70589;BME280;58152;49.202;18.744;2023-09-08T04:18:12;98118.97;;;15.57;61.31
70589;BME280;58152;49.202;18.744;2023-09-08T04:20:37;98133.13;;;15.56;61.87
70589;BME280;58152;49.202;18.744;2023-09-08T04:23:03;98123.03;;;15.46;61.97
70589;BME280;58152;49.202;18.744;2023-09-08T04:25:28;98130.22;;;15.44;61.65
70589;BME280;58152;49.202;18.744;2023-09-08T04:27:54;98136.16;;;15.48;61.76
70589;BME280;58152;49.202;18.744;2023-09-08T04:30:19;98125.69;;;15.46;61.44
70589;BME280;58152;49.202;18.744;2023-09-08T04:32:44;98133.38;;;15.51;61.43
70589;BME280;58152;49.202;18.744;2023-09-08T04:35:10;98132.44;;;15.52;61.32
70589;BME280;58152;49.202;18.744;2023-09-08T04:37:36;98136.16;;;15.48;61.37
70589;BME280;58152;49.202;18.744;2023-09-08T04:40:02;98139.00;;;15.45;61.03
70589;BME280;58152;49.202;18.744;2023-09-08T04:42:28;98138.19;;;15.43;61.29
70589;BME280;58152;49.202;18.744;2023-09-08T04:44:54;98132.41;;;15.36;61.14
70589;BME280;58152;49.202;18.744;2023-09-08T04:47:19;98131.69;;;15.33;61.16
70589;BME280;58152;49.202;18.744;2023-09-08T04:49:45;98132.63;;;15.32;61.41
70589;BME280;58152;49.202;18.744;2023-09-08T04:52:11;98131.94;;;15.28;61.55
70589;BME280;58152;49.202;18.744;2023-09-08T04:54:36;98133.72;;;15.28;61.64
70589;BME280;58152;49.202;18.744;2023-09-08T04:57:02;98138.22;;;15.25;61.63
70589;BME280;58152;49.202;18.744;2023-09-08T04:59:28;98139.09;;;15.26;62.16
70589;BME280;58152;49.202;18.744;2023-09-08T05:01:53;98139.97;;;15.27;62.65
70589;BME280;58152;49.202;18.744;2023-09-08T05:04:19;98127.59;;;15.27;62.46
70589;BME280;58152;49.202;18.744;2023-09-08T05:06:44;98141.56;;;15.29;62.25
70589;BME280;58152;49.202;18.744;2023-09-08T05:09:10;98135.44;;;15.29;62.38
70589;BME280;58152;49.202;18.744;2023-09-08T05:11:35;98138.06;;;15.29;62.74
70589;BME280;58152;49.202;18.744;2023-09-08T05:14:01;98145.16;;;15.28;62.40
70589;BME280;58152;49.202;18.744;2023-09-08T05:16:27;98138.31;;;15.24;62.60
70589;BME280;58152;49.202;18.744;2023-09-08T05:19:03;98140.09;;;15.23;62.69
70589;BME280;58152;49.202;18.744;2023-09-08T05:21:30;98136.50;;;15.24;63.10
70589;BME280;58152;49.202;18.744;2023-09-08T05:23:55;98134.97;;;15.20;63.00
70589;BME280;58152;49.202;18.744;2023-09-08T05:26:21;98145.25;;;15.27;63.38
70589;BME280;58152;49.202;18.744;2023-09-08T05:28:46;98133.56;;;15.31;63.72
70589;BME280;58152;49.202;18.744;2023-09-08T05:31:12;98149.72;;;15.42;63.46
70589;BME280;58152;49.202;18.744;2023-09-08T05:33:37;98144.53;;;15.40;63.82
70589;BME280;58152;49.202;18.744;2023-09-08T05:36:02;98141.88;;;15.40;63.56
70589;BME280;58152;49.202;18.744;2023-09-08T05:38:28;98146.22;;;15.41;64.17
70589;BME280;58152;49.202;18.744;2023-09-08T05:40:54;98150.72;;;15.39;64.43
70589;BME280;58152;49.202;18.744;2023-09-08T05:43:20;98148.97;;;15.40;64.57
70589;BME280;58152;49.202;18.744;2023-09-08T05:45:46;98147.22;;;15.39;64.66
70589;BME280;58152;49.202;18.744;2023-09-08T05:48:11;98149.09;;;15.37;64.64
70589;BME280;58152;49.202;18.744;2023-09-08T05:50:37;98148.25;;;15.36;64.78
70589;BME280;58152;49.202;18.744;2023-09-08T05:53:02;98150.72;;;15.39;64.96
70589;BME280;58152;49.202;18.744;2023-09-08T05:55:28;98158.41;;;15.44;64.71
70589;BME280;58152;49.202;18.744;2023-09-08T05:57:53;98155.78;;;15.44;65.27
70589;BME280;58152;49.202;18.744;2023-09-08T06:00:19;98164.50;;;15.46;64.90
70589;BME280;58152;49.202;18.744;2023-09-08T06:02:45;98160.06;;;15.46;65.19
70589;BME280;58152;49.202;18.744;2023-09-08T06:05:10;98160.75;;;15.50;65.34
70589;BME280;58152;49.202;18.744;2023-09-08T06:07:36;98156.56;;;15.46;65.43
70589;BME280;58152;49.202;18.744;2023-09-08T06:10:01;98146.84;;;15.46;65.79
70589;BME280;58152;49.202;18.744;2023-09-08T06:12:26;98155.38;;;15.51;65.84
70589;BME280;58152;49.202;18.744;2023-09-08T06:14:52;98162.38;;;15.52;66.12
70589;BME280;58152;49.202;18.744;2023-09-08T06:17:17;98149.38;;;15.48;66.39
70589;BME280;58152;49.202;18.744;2023-09-08T06:19:43;98146.44;;;15.54;66.10
70589;BME280;58152;49.202;18.744;2023-09-08T06:22:08;98150.78;;;15.55;66.41
70589;BME280;58152;49.202;18.744;2023-09-08T06:24:33;98142.94;;;15.54;66.32
70589;BME280;58152;49.202;18.744;2023-09-08T06:26:59;98148.16;;;15.55;66.34
70589;BME280;58152;49.202;18.744;2023-09-08T06:29:24;98147.13;;;15.58;66.88
70589;BME280;58152;49.202;18.744;2023-09-08T06:31:50;98148.75;;;15.60;67.00
70589;BME280;58152;49.202;18.744;2023-09-08T06:34:16;98148.59;;;15.63;66.74
70589;BME280;58152;49.202;18.744;2023-09-08T06:36:41;98146.84;;;15.64;66.83
70589;BME280;58152;49.202;18.744;2023-09-08T06:39:07;98148.38;;;15.68;66.91
70589;BME280;58152;49.202;18.744;2023-09-08T06:41:32;98150.00;;;15.70;67.50
70589;BME280;58152;49.202;18.744;2023-09-08T06:43:58;98139.59;;;15.67;67.36
70589;BME280;58152;49.202;18.744;2023-09-08T06:46:23;98140.34;;;15.69;67.26
70589;BME280;58152;49.202;18.744;2023-09-08T06:48:49;98140.97;;;15.74;67.68
70589;BME280;58152;49.202;18.744;2023-09-08T06:51:14;98143.59;;;15.74;68.17
70589;BME280;58152;49.202;18.744;2023-09-08T06:53:42;98137.22;;;15.79;68.21
70589;BME280;58152;49.202;18.744;2023-09-08T06:56:08;98130.13;;;15.79;67.78
70589;BME280;58152;49.202;18.744;2023-09-08T06:58:33;98136.13;;;15.83;67.51
70589;BME280;58152;49.202;18.744;2023-09-08T07:00:58;98135.19;;;15.84;67.85
70589;BME280;58152;49.202;18.744;2023-09-08T07:03:24;98131.44;;;15.88;68.29
70589;BME280;58152;49.202;18.744;2023-09-08T07:05:51;98138.53;;;15.87;68.15
70589;BME280;58152;49.202;18.744;2023-09-08T07:08:16;98134.94;;;15.88;67.97
70589;BME280;58152;49.202;18.744;2023-09-08T07:10:43;98132.28;;;15.88;68.12
70589;BME280;58152;49.202;18.744;2023-09-08T07:13:09;98135.28;;;15.98;68.78
70589;BME280;58152;49.202;18.744;2023-09-08T07:15:34;98136.06;;;16.00;68.88
70589;BME280;58152;49.202;18.744;2023-09-08T07:17:59;98134.28;;;16.00;68.45
70589;BME280;58152;49.202;18.744;2023-09-08T07:20:25;98131.53;;;16.02;68.92
70589;BME280;58152;49.202;18.744;2023-09-08T07:22:50;98134.09;;;16.04;68.99
70589;BME280;58152;49.202;18.744;2023-09-08T07:25:16;98141.69;;;16.10;69.38
70589;BME280;58152;49.202;18.744;2023-09-08T07:27:41;98133.66;;;16.11;69.16
70589;BME280;58152;49.202;18.744;2023-09-08T07:30:07;98131.88;;;16.12;69.00
70589;BME280;58152;49.202;18.744;2023-09-08T07:32:32;98130.06;;;16.12;69.59
70589;BME280;58152;49.202;18.744;2023-09-08T07:34:58;98125.47;;;16.16;69.71
70589;BME280;58152;49.202;18.744;2023-09-08T07:37:24;98130.44;;;16.22;69.33
70589;BME280;58152;49.202;18.744;2023-09-08T07:39:50;98133.00;;;16.23;69.23
70589;BME280;58152;49.202;18.744;2023-09-08T07:42:16;98125.06;;;16.23;69.60
70589;BME280;58152;49.202;18.744;2023-09-08T07:44:42;98132.66;;;16.30;69.55
70589;BME280;58152;49.202;18.744;2023-09-08T07:47:07;98127.28;;;16.31;69.66
70589;BME280;58152;49.202;18.744;2023-09-08T07:49:34;98129.72;;;16.34;70.25
70589;BME280;58152;49.202;18.744;2023-09-08T07:51:59;98134.97;;;16.36;70.01
70589;BME280;58152;49.202;18.744;2023-09-08T07:54:25;98124.38;;;16.36;70.02
70589;BME280;58152;49.202;18.744;2023-09-08T07:56:50;98128.38;;;16.43;69.85
70589;BME280;58152;49.202;18.744;2023-09-08T07:59:17;98124.00;;;16.42;69.86
70589;BME280;58152;49.202;18.744;2023-09-08T08:01:43;98128.94;;;16.48;70.00
70589;BME280;58152;49.202;18.744;2023-09-08T08:04:08;98135.78;;;16.52;69.92
70589;BME280;58152;49.202;18.744;2023-09-08T08:06:34;98118.09;;;16.52;69.99
70589;BME280;58152;49.202;18.744;2023-09-08T08:08:59;98130.13;;;16.58;70.28
70589;BME280;58152;49.202;18.744;2023-09-08T08:11:25;98133.47;;;16.62;70.11
70589;BME280;58152;49.202;18.744;2023-09-08T08:14:08;98114.91;;;16.62;70.81
70589;BME280;58152;49.202;18.744;2023-09-08T08:16:33;98113.91;;;16.64;70.58
70589;BME280;58152;49.202;18.744;2023-09-08T08:18:59;98122.19;;;16.74;70.45
70589;BME280;58152;49.202;18.744;2023-09-08T08:21:25;98119.44;;;16.75;70.26
70589;BME280;58152;49.202;18.744;2023-09-08T08:23:50;98120.97;;;16.80;70.42
70589;BME280;58152;49.202;18.744;2023-09-08T08:26:16;98120.03;;;16.81;70.37
70589;BME280;58152;49.202;18.744;2023-09-08T08:28:43;98113.81;;;16.82;70.75
70589;BME280;58152;49.202;18.744;2023-09-08T08:31:08;98112.41;;;16.90;70.66
70589;BME280;58152;49.202;18.744;2023-09-08T08:33:36;98100.94;;;16.90;70.69
70589;BME280;58152;49.202;18.744;2023-09-08T08:36:02;98104.09;;;16.96;70.71
70589;BME280;58152;49.202;18.744;2023-09-08T08:38:30;98091.88;;;16.94;70.78
70589;BME280;58152;49.202;18.744;2023-09-08T08:41:03;98101.19;;;17.01;70.79
70589;BME280;58152;49.202;18.744;2023-09-08T08:43:37;98097.47;;;17.03;70.69
70589;BME280;58152;49.202;18.744;2023-09-08T08:46:04;98096.44;;;17.06;70.51
70589;BME280;58152;49.202;18.744;2023-09-08T08:48:31;98085.84;;;17.06;70.98
70589;BME280;58152;49.202;18.744;2023-09-08T08:51:03;98094.19;;;17.14;70.82
70589;BME280;58152;49.202;18.744;2023-09-08T08:53:32;98088.63;;;17.19;70.77
70589;BME280;58152;49.202;18.744;2023-09-08T08:55:59;98076.13;;;17.21;70.81
70589;BME280;58152;49.202;18.744;2023-09-08T08:58:39;98085.31;;;17.30;70.60
70589;BME280;58152;49.202;18.744;2023-09-08T09:01:05;98078.88;;;17.34;70.43
70589;BME280;58152;49.202;18.744;2023-09-08T09:03:33;98082.00;;;17.40;70.21
70589;BME280;58152;49.202;18.744;2023-09-08T09:06:00;98082.47;;;17.47;70.38
70589;BME280;58152;49.202;18.744;2023-09-08T09:08:27;98080.09;;;17.57;69.92
70589;BME280;58152;49.202;18.744;2023-09-08T09:10:53;98068.44;;;17.59;69.72
70589;BME280;58152;49.202;18.744;2023-09-08T09:13:18;98073.28;;;17.67;69.67
70589;BME280;58152;49.202;18.744;2023-09-08T09:15:44;98066.94;;;17.69;69.00
70589;BME280;58152;49.202;18.744;2023-09-08T09:18:10;98065.84;;;17.73;68.69
70589;BME280;58152;49.202;18.744;2023-09-08T09:20:36;98058.59;;;17.75;68.53
70589;BME280;58152;49.202;18.744;2023-09-08T09:23:01;98056.81;;;17.76;68.29
70589;BME280;58152;49.202;18.744;2023-09-08T09:25:30;98075.66;;;17.86;67.99
70589;BME280;58152;49.202;18.744;2023-09-08T09:27:57;98078.78;;;17.92;67.79
70589;BME280;58152;49.202;18.744;2023-09-08T09:30:24;98067.88;;;17.97;67.62
70589;BME280;58152;49.202;18.744;2023-09-08T09:32:59;98063.31;;;17.99;67.65
70589;BME280;58152;49.202;18.744;2023-09-08T09:35:49;98064.63;;;18.06;68.18
70589;BME280;58152;49.202;18.744;2023-09-08T09:38:18;98059.66;;;18.14;67.69
70589;BME280;58152;49.202;18.744;2023-09-08T09:40:45;98061.72;;;18.23;67.24
70589;BME280;58152;49.202;18.744;2023-09-08T09:43:11;98059.97;;;18.37;66.65
70589;BME280;58152;49.202;18.744;2023-09-08T09:45:38;98056.38;;;18.50;66.06
70589;BME280;58152;49.202;18.744;2023-09-08T09:48:05;98053.41;;;18.69;65.97
70589;BME280;58152;49.202;18.744;2023-09-08T09:50:33;98046.75;;;18.89;65.23
70589;BME280;58152;49.202;18.744;2023-09-08T09:53:00;98047.94;;;19.11;64.29
70589;BME280;58152;49.202;18.744;2023-09-08T09:55:27;98046.66;;;19.29;64.02
70589;BME280;58152;49.202;18.744;2023-09-08T09:57:57;98042.81;;;19.46;63.54
70589;BME280;58152;49.202;18.744;2023-09-08T10:00:30;98044.72;;;19.69;62.91
70589;BME280;58152;49.202;18.744;2023-09-08T10:02:56;98027.66;;;19.85;62.35
70589;BME280;58152;49.202;18.744;2023-09-08T10:05:23;98042.91;;;20.06;61.98
70589;BME280;58152;49.202;18.744;2023-09-08T10:07:49;98040.63;;;20.26;61.06
70589;BME280;58152;49.202;18.744;2023-09-08T10:10:16;98044.47;;;20.46;60.34
70589;BME280;58152;49.202;18.744;2023-09-08T10:12:46;98028.31;;;20.60;59.45
70589;BME280;58152;49.202;18.744;2023-09-08T10:15:19;98033.09;;;20.79;59.24
70589;BME280;58152;49.202;18.744;2023-09-08T10:17:45;98030.84;;;20.97;59.12
70589;BME280;58152;49.202;18.744;2023-09-08T10:20:12;98035.50;;;21.17;58.60
70589;BME280;58152;49.202;18.744;2023-09-08T10:22:41;98020.97;;;21.33;57.92
70589;BME280;58152;49.202;18.744;2023-09-08T10:25:12;98032.75;;;21.52;57.21
70589;BME280;58152;49.202;18.744;2023-09-08T10:27:38;98028.13;;;21.66;56.74
70589;BME280;58152;49.202;18.744;2023-09-08T10:30:05;98031.41;;;21.80;56.38
70589;BME280;58152;49.202;18.744;2023-09-08T10:32:33;98032.84;;;21.96;57.02
70589;BME280;58152;49.202;18.744;2023-09-08T10:34:59;98029.81;;;22.00;57.16
70589;BME280;58152;49.202;18.744;2023-09-08T10:37:26;98025.06;;;22.15;57.53
70589;BME280;58152;49.202;18.744;2023-09-08T10:39:55;98030.72;;;22.33;57.46
70589;BME280;58152;49.202;18.744;2023-09-08T10:42:22;98020.09;;;22.43;56.82
70589;BME280;58152;49.202;18.744;2023-09-08T10:47:22;98015.50;;;22.66;56.41
70589;BME280;58152;49.202;18.744;2023-09-08T10:49:48;98006.25;;;22.70;56.49
70589;BME280;58152;49.202;18.744;2023-09-08T10:52:16;98005.34;;;22.80;55.66
70589;BME280;58152;49.202;18.744;2023-09-08T10:54:47;98001.06;;;22.89;54.95
70589;BME280;58152;49.202;18.744;2023-09-08T10:57:23;98010.59;;;23.03;55.11
70589;BME280;58152;49.202;18.744;2023-09-08T11:00:01;98009.53;;;23.15;54.27
70589;BME280;58152;49.202;18.744;2023-09-08T11:02:49;98009.44;;;23.26;54.71
70589;BME280;58152;49.202;18.744;2023-09-08T11:05:21;97995.41;;;23.34;54.57
70589;BME280;58152;49.202;18.744;2023-09-08T11:08:11;97996.88;;;23.48;53.20
70589;BME280;58152;49.202;18.744;2023-09-08T11:10:59;97988.19;;;23.55;53.51
70589;BME280;58152;49.202;18.744;2023-09-08T11:16:40;97982.25;;;23.82;52.74
70589;BME280;58152;49.202;18.744;2023-09-08T11:19:05;97988.03;;;23.97;52.58
70589;BME280;58152;49.202;18.744;2023-09-08T11:21:31;97987.63;;;24.12;52.58
70589;BME280;58152;49.202;18.744;2023-09-08T11:27:22;97987.41;;;24.44;52.25
70589;BME280;58152;49.202;18.744;2023-09-08T11:29:51;97980.47;;;24.51;51.87
70589;BME280;58152;49.202;18.744;2023-09-08T11:32:17;97980.63;;;24.59;50.81
70589;BME280;58152;49.202;18.744;2023-09-08T11:34:42;97980.91;;;24.75;50.66
70589;BME280;58152;49.202;18.744;2023-09-08T11:37:15;97991.59;;;24.95;50.21
70589;BME280;58152;49.202;18.744;2023-09-08T11:39:44;97991.31;;;25.07;50.37
70589;BME280;58152;49.202;18.744;2023-09-08T11:42:11;97973.50;;;25.16;49.65
70589;BME280;58152;49.202;18.744;2023-09-08T11:44:38;97973.31;;;25.27;49.18
70589;BME280;58152;49.202;18.744;2023-09-08T11:47:06;97983.72;;;25.40;49.20
70589;BME280;58152;49.202;18.744;2023-09-08T11:49:42;97963.75;;;25.52;48.03
70589;BME280;58152;49.202;18.744;2023-09-08T11:52:09;97967.63;;;25.68;49.06
70589;BME280;58152;49.202;18.744;2023-09-08T11:54:35;97969.84;;;25.82;48.84
70589;BME280;58152;49.202;18.744;2023-09-08T11:57:02;97969.31;;;25.96;48.33
70589;BME280;58152;49.202;18.744;2023-09-08T11:59:30;97964.59;;;26.08;48.29
70589;BME280;58152;49.202;18.744;2023-09-08T12:01:57;97957.97;;;26.20;47.40
70589;BME280;58152;49.202;18.744;2023-09-08T12:04:22;97957.47;;;26.34;46.98
70589;BME280;58152;49.202;18.744;2023-09-08T12:06:52;97955.94;;;26.50;46.59
70589;BME280;58152;49.202;18.744;2023-09-08T12:09:20;97943.41;;;26.58;46.77
70589;BME280;58152;49.202;18.744;2023-09-08T12:11:46;97943.84;;;26.72;46.16
70589;BME280;58152;49.202;18.744;2023-09-08T12:14:12;97944.28;;;26.85;45.96
70589;BME280;58152;49.202;18.744;2023-09-08T12:16:39;97942.16;;;26.97;45.70
70589;BME280;58152;49.202;18.744;2023-09-08T12:19:05;97930.75;;;27.03;44.77
70589;BME280;58152;49.202;18.744;2023-09-08T12:21:35;97933.56;;;27.19;45.58
70589;BME280;58152;49.202;18.744;2023-09-08T12:24:00;97929.59;;;27.31;44.92
70589;BME280;58152;49.202;18.744;2023-09-08T12:26:26;97918.84;;;27.40;44.58
70589;BME280;58152;49.202;18.744;2023-09-08T12:28:51;97913.34;;;27.49;44.77
70589;BME280;58152;49.202;18.744;2023-09-08T12:31:17;97904.78;;;27.62;44.04
70589;BME280;58152;49.202;18.744;2023-09-08T12:33:44;97916.81;;;27.76;43.91
70589;BME280;58152;49.202;18.744;2023-09-08T12:36:15;97903.19;;;27.85;44.07
70589;BME280;58152;49.202;18.744;2023-09-08T12:38:41;97904.41;;;27.99;43.71
70589;BME280;58152;49.202;18.744;2023-09-08T12:41:11;97904.09;;;28.10;42.36
70589;BME280;58152;49.202;18.744;2023-09-08T12:43:37;97898.38;;;28.22;42.09
70589;BME280;58152;49.202;18.744;2023-09-08T12:46:11;97897.34;;;28.31;42.21
70589;BME280;58152;49.202;18.744;2023-09-08T12:49:02;97904.81;;;28.45;42.62
70589;BME280;58152;49.202;18.744;2023-09-08T12:51:29;97905.31;;;28.57;41.97
70589;BME280;58152;49.202;18.744;2023-09-08T12:53:54;97895.53;;;28.64;41.85
70589;BME280;58152;49.202;18.744;2023-09-08T12:56:44;97899.88;;;28.90;39.93
